Etusivu
METAR-TAF:

METAR-TAF

Lentoasemat :

Pryor Field Regional Airport

Decatur, Alabama, Yhdysvallat

Leveyspiiri: 34-39-29N, Pituuspiiri: 086-56-36W, korkeus merenpinnasta: 180 m

Tämänhetkinen sää

Tämä raportti tehtiin 40 minuuttia sitten, kello 00.53 UTC
Tuuli 4 kn lännestä/lounaasta
Lämpötila 26°C
Kosteus 65%
Ilmanpaine 1014 hPa
Näkyvyys: 16.1 km
selkeää

METAR: KDCU 060053Z AUTO 25004KT 10SM CLR 26/19 A2993 RMK AO2 SLP128 T02560189

Aika: 20:33 (01:33 UTC)


TAF: puuttuu

Säähavainnot ja -ennusteet yli 4000 lentoasemalta (METAR- ja TAF-raportit).

Käytössä olevat sääasemat on merkitty karttaan keltaisilla ja punaisilla pisteillä.

Aseta hiiri pisteen päälle nähdäksesi sääaseman nimen.

Klikkaa sitten nähdäksesi säähavainnot ja -ennusteet.

Kartan vaihtaminen: klikkaa mustalla rastilla varustettuja vihreitä pisteitä, niin voit zoomata sisään; viivalla varustettua vihreää pistettä, niin voit zoomata ulos tai vihreitä nuolia, niin pääset viereisille kartoille.


METAR-TAF: